Ana Sayfa
METAR-TAF:

METAR-TAF

Havaalanları :

Sudbury, Ontario, Kanada

Enlem: 46-37N, Boylam: 080-48W, yükseklik: 348 m

Güncel hava durumu gözlemi

Rapor saat 17:00 UTC de 49 dakika önce yapıldı.
Rüzgar kuzey/kuzeydoğudan 8 kt
Sıcaklık -3°C
Nem 50%
Basınç 1019 hPa
Görüş mesafesi: 32.2 km
15000 ft yükseklikte az bulutlu
22000 ft yükseklikte parçalı bulutlu

METAR: CYSB 251700Z 02008KT 20SM FEW150 SCT220 M03/M12 A3008 RMK AC1CI4 AC TR SLP206

Saat: 12:49 (17:49 UTC)

Tahmin

Rapor saat 13:40 UTC de 4 saat ve 9 dakika önce yapıldı.
Ayın 25'si saat 14 UTC'den ayın 26'si saat 02 UTC'ye kadar geçerli Tahmin
Rüzgar kuzeydan 12 kt
Görüş mesafesi: 10 km
14000 ft yükseklikte az bulutlu
24000 ft yükseklikte parçalı çok bulutlu

TAF: CYSB 251340Z 2514/2602 01012KT P6SM FEW140 BKN240 RMK NXT FCST BY 252000Z

4.000'den fazla havaalanı için hava durumu gözlemleri ve tahminleri (METAR ve TAF raporları).

Kullanılabilir istasyonlar harita üzerinde sarı ve kırmızı noktalarla gösterilir.

İstasyonun adını görmek için fareyi noktanın üzerinde gezdirin.

Sonrasında hava gözlem ve tahminlerini görmek için tıklayın.

Haritayı değiştirmek için: yaklaştırmak için siyah artı işaretli yeşil düğmeye ve uzaklaştırmak için de eksi işaretli düğmeye hızla tıklayın; bitişik haritalar için yeşil okları kullanın.


METAR-TAF: